sensor_id;sensor_type;location;lat;lon;timestamp;P1;durP1;ratioP1;P2;durP2;ratioP2
12976;SDS011;6553;48.412;9.514;2023-04-25T00:01:33;1.58;;;1.40;;
12976;SDS011;6553;48.412;9.514;2023-04-25T00:04:01;1.70;;;1.60;;
12976;SDS011;6553;48.412;9.514;2023-04-25T00:06:27;1.60;;;1.50;;
12976;SDS011;6553;48.412;9.514;2023-04-25T00:08:55;2.08;;;1.52;;
12976;SDS011;6553;48.412;9.514;2023-04-25T00:11:21;1.70;;;1.60;;
12976;SDS011;6553;48.412;9.514;2023-04-25T00:13:48;1.92;;;1.70;;
12976;SDS011;6553;48.412;9.514;2023-04-25T00:16:15;2.25;;;1.67;;
12976;SDS011;6553;48.412;9.514;2023-04-25T00:18:41;1.50;;;1.40;;
12976;SDS011;6553;48.412;9.514;2023-04-25T00:21:08;1.52;;;1.42;;
12976;SDS011;6553;48.412;9.514;2023-04-25T00:23:34;1.52;;;1.42;;
12976;SDS011;6553;48.412;9.514;2023-04-25T00:26:01;1.60;;;1.50;;
12976;SDS011;6553;48.412;9.514;2023-04-25T00:28:28;1.58;;;1.40;;
12976;SDS011;6553;48.412;9.514;2023-04-25T00:30:53;2.17;;;1.45;;
12976;SDS011;6553;48.412;9.514;2023-04-25T00:33:19;2.38;;;1.58;;
12976;SDS011;6553;48.412;9.514;2023-04-25T00:35:46;1.60;;;1.50;;
12976;SDS011;6553;48.412;9.514;2023-04-25T00:38:11;1.65;;;1.30;;
12976;SDS011;6553;48.412;9.514;2023-04-25T00:40:37;1.42;;;1.30;;
12976;SDS011;6553;48.412;9.514;2023-04-25T00:43:03;1.40;;;1.30;;
12976;SDS011;6553;48.412;9.514;2023-04-25T00:45:29;1.30;;;1.20;;
12976;SDS011;6553;48.412;9.514;2023-04-25T00:47:55;1.55;;;1.45;;
12976;SDS011;6553;48.412;9.514;2023-04-25T00:50:22;1.45;;;1.35;;
12976;SDS011;6553;48.412;9.514;2023-04-25T00:52:49;1.83;;;1.40;;
12976;SDS011;6553;48.412;9.514;2023-04-25T00:55:14;1.73;;;1.45;;
12976;SDS011;6553;48.412;9.514;2023-04-25T00:57:41;1.45;;;1.35;;
12976;SDS011;6553;48.412;9.514;2023-04-25T01:00:07;1.85;;;1.60;;
12976;SDS011;6553;48.412;9.514;2023-04-25T01:02:36;2.45;;;1.50;;
12976;SDS011;6553;48.412;9.514;2023-04-25T01:05:02;1.33;;;1.23;;
12976;SDS011;6553;48.412;9.514;2023-04-25T01:07:29;1.42;;;1.30;;
12976;SDS011;6553;48.412;9.514;2023-04-25T01:09:55;1.77;;;1.30;;
12976;SDS011;6553;48.412;9.514;2023-04-25T01:12:21;1.40;;;1.30;;
12976;SDS011;6553;48.412;9.514;2023-04-25T01:14:48;1.48;;;1.38;;
12976;SDS011;6553;48.412;9.514;2023-04-25T01:17:14;1.48;;;1.13;;
12976;SDS011;6553;48.412;9.514;2023-04-25T01:19:41;1.70;;;1.60;;
12976;SDS011;6553;48.412;9.514;2023-04-25T01:22:07;1.40;;;1.30;;
12976;SDS011;6553;48.412;9.514;2023-04-25T01:24:35;1.30;;;1.20;;
12976;SDS011;6553;48.412;9.514;2023-04-25T01:27:02;1.38;;;1.27;;
12976;SDS011;6553;48.412;9.514;2023-04-25T01:29:28;1.55;;;1.42;;
12976;SDS011;6553;48.412;9.514;2023-04-25T01:31:55;1.63;;;1.52;;
12976;SDS011;6553;48.412;9.514;2023-04-25T01:34:23;1.52;;;1.33;;
12976;SDS011;6553;48.412;9.514;2023-04-25T01:36:50;1.70;;;1.60;;
12976;SDS011;6553;48.412;9.514;2023-04-25T01:39:17;2.22;;;1.52;;
12976;SDS011;6553;48.412;9.514;2023-04-25T01:41:44;1.50;;;1.40;;
12976;SDS011;6553;48.412;9.514;2023-04-25T01:44:13;1.40;;;1.30;;
12976;SDS011;6553;48.412;9.514;2023-04-25T01:46:39;1.38;;;1.20;;
12976;SDS011;6553;48.412;9.514;2023-04-25T01:49:06;1.48;;;1.38;;
12976;SDS011;6553;48.412;9.514;2023-04-25T01:51:32;1.50;;;1.40;;
12976;SDS011;6553;48.412;9.514;2023-04-25T01:53:58;1.50;;;1.35;;
12976;SDS011;6553;48.412;9.514;2023-04-25T01:56:24;1.95;;;1.50;;
12976;SDS011;6553;48.412;9.514;2023-04-25T01:58:50;2.17;;;1.30;;
12976;SDS011;6553;48.412;9.514;2023-04-25T02:01:31;1.40;;;1.30;;
12976;SDS011;6553;48.412;9.514;2023-04-25T02:04:12;1.30;;;1.20;;
12976;SDS011;6553;48.412;9.514;2023-04-25T02:06:39;1.00;;;1.00;;
12976;SDS011;6553;48.412;9.514;2023-04-25T02:09:06;1.40;;;1.30;;
12976;SDS011;6553;48.412;9.514;2023-04-25T02:11:31;1.45;;;1.30;;
12976;SDS011;6553;48.412;9.514;2023-04-25T02:14:32;1.35;;;1.25;;
12976;SDS011;6553;48.412;9.514;2023-04-25T02:17:05;1.40;;;1.30;;
12976;SDS011;6553;48.412;9.514;2023-04-25T02:19:32;1.40;;;1.30;;
12976;SDS011;6553;48.412;9.514;2023-04-25T02:21:57;1.38;;;1.27;;
12976;SDS011;6553;48.412;9.514;2023-04-25T02:24:23;1.42;;;1.33;;
12976;SDS011;6553;48.412;9.514;2023-04-25T02:26:49;1.55;;;1.45;;
12976;SDS011;6553;48.412;9.514;2023-04-25T02:29:15;1.30;;;1.20;;
12976;SDS011;6553;48.412;9.514;2023-04-25T02:31:42;1.30;;;1.20;;
12976;SDS011;6553;48.412;9.514;2023-04-25T02:34:07;1.40;;;1.30;;
12976;SDS011;6553;48.412;9.514;2023-04-25T02:36:36;1.20;;;1.10;;
12976;SDS011;6553;48.412;9.514;2023-04-25T02:39:01;1.45;;;1.30;;
12976;SDS011;6553;48.412;9.514;2023-04-25T02:41:28;1.38;;;1.23;;
12976;SDS011;6553;48.412;9.514;2023-04-25T02:43:54;1.15;;;1.15;;
12976;SDS011;6553;48.412;9.514;2023-04-25T02:46:20;1.35;;;1.25;;
12976;SDS011;6553;48.412;9.514;2023-04-25T02:48:46;1.50;;;1.40;;
12976;SDS011;6553;48.412;9.514;2023-04-25T02:51:11;1.38;;;1.38;;
12976;SDS011;6553;48.412;9.514;2023-04-25T02:53:37;1.40;;;1.30;;
12976;SDS011;6553;48.412;9.514;2023-04-25T02:56:03;2.05;;;1.40;;
12976;SDS011;6553;48.412;9.514;2023-04-25T02:58:29;1.25;;;1.10;;
12976;SDS011;6553;48.412;9.514;2023-04-25T03:00:55;1.50;;;1.40;;
12976;SDS011;6553;48.412;9.514;2023-04-25T03:03:21;1.20;;;1.10;;
12976;SDS011;6553;48.412;9.514;2023-04-25T03:05:51;1.42;;;1.33;;
12976;SDS011;6553;48.412;9.514;2023-04-25T03:08:22;1.80;;;1.70;;
12976;SDS011;6553;48.412;9.514;2023-04-25T03:10:48;1.20;;;1.20;;
12976;SDS011;6553;48.412;9.514;2023-04-25T03:13:16;1.48;;;1.38;;
12976;SDS011;6553;48.412;9.514;2023-04-25T03:15:43;1.48;;;1.38;;
12976;SDS011;6553;48.412;9.514;2023-04-25T03:18:08;1.42;;;1.33;;
12976;SDS011;6553;48.412;9.514;2023-04-25T03:20:34;1.40;;;1.30;;
12976;SDS011;6553;48.412;9.514;2023-04-25T03:23:00;1.50;;;1.40;;
12976;SDS011;6553;48.412;9.514;2023-04-25T03:25:27;2.05;;;1.23;;
12976;SDS011;6553;48.412;9.514;2023-04-25T03:27:53;1.40;;;1.30;;
12976;SDS011;6553;48.412;9.514;2023-04-25T03:30:19;1.60;;;1.50;;
12976;SDS011;6553;48.412;9.514;2023-04-25T03:32:45;1.30;;;1.20;;
12976;SDS011;6553;48.412;9.514;2023-04-25T03:35:14;1.52;;;1.35;;
12976;SDS011;6553;48.412;9.514;2023-04-25T03:37:40;1.40;;;1.30;;
12976;SDS011;6553;48.412;9.514;2023-04-25T03:40:10;1.38;;;1.27;;
12976;SDS011;6553;48.412;9.514;2023-04-25T03:42:56;1.63;;;1.35;;
12976;SDS011;6553;48.412;9.514;2023-04-25T03:45:23;1.30;;;1.20;;
12976;SDS011;6553;48.412;9.514;2023-04-25T03:47:48;1.33;;;1.23;;
12976;SDS011;6553;48.412;9.514;2023-04-25T03:50:14;1.58;;;1.35;;
12976;SDS011;6553;48.412;9.514;2023-04-25T03:52:40;1.38;;;1.27;;
12976;SDS011;6553;48.412;9.514;2023-04-25T03:55:07;1.35;;;1.25;;
12976;SDS011;6553;48.412;9.514;2023-04-25T03:57:34;1.40;;;1.30;;
12976;SDS011;6553;48.412;9.514;2023-04-25T04:00:00;1.25;;;1.15;;
12976;SDS011;6553;48.412;9.514;2023-04-25T04:02:28;1.50;;;1.40;;
12976;SDS011;6553;48.412;9.514;2023-04-25T04:04:53;1.65;;;1.55;;
12976;SDS011;6553;48.412;9.514;2023-04-25T04:07:21;1.70;;;1.20;;
12976;SDS011;6553;48.412;9.514;2023-04-25T04:09:50;1.27;;;1.17;;
12976;SDS011;6553;48.412;9.514;2023-04-25T04:12:25;1.90;;;1.40;;
12976;SDS011;6553;48.412;9.514;2023-04-25T04:14:51;1.20;;;1.10;;
12976;SDS011;6553;48.412;9.514;2023-04-25T04:17:17;1.25;;;1.15;;
12976;SDS011;6553;48.412;9.514;2023-04-25T04:19:43;1.80;;;1.42;;
12976;SDS011;6553;48.412;9.514;2023-04-25T04:22:16;1.55;;;1.45;;
12976;SDS011;6553;48.412;9.514;2023-04-25T04:24:42;1.27;;;1.17;;
12976;SDS011;6553;48.412;9.514;2023-04-25T04:27:14;1.48;;;1.38;;
12976;SDS011;6553;48.412;9.514;2023-04-25T04:29:45;1.30;;;1.20;;
12976;SDS011;6553;48.412;9.514;2023-04-25T04:32:22;1.30;;;1.20;;
12976;SDS011;6553;48.412;9.514;2023-04-25T04:34:49;1.30;;;1.20;;
12976;SDS011;6553;48.412;9.514;2023-04-25T04:37:16;1.20;;;1.10;;
12976;SDS011;6553;48.412;9.514;2023-04-25T04:39:44;2.28;;;1.20;;
12976;SDS011;6553;48.412;9.514;2023-04-25T04:42:22;1.80;;;1.20;;
12976;SDS011;6553;48.412;9.514;2023-04-25T04:45:16;1.50;;;1.40;;
12976;SDS011;6553;48.412;9.514;2023-04-25T04:48:05;1.50;;;1.40;;
12976;SDS011;6553;48.412;9.514;2023-04-25T04:50:31;1.00;;;1.00;;
12976;SDS011;6553;48.412;9.514;2023-04-25T04:53:10;1.50;;;1.40;;
12976;SDS011;6553;48.412;9.514;2023-04-25T04:55:36;0.95;;;0.95;;
12976;SDS011;6553;48.412;9.514;2023-04-25T04:58:14;1.85;;;1.70;;
12976;SDS011;6553;48.412;9.514;2023-04-25T05:00:52;1.30;;;1.20;;
12976;SDS011;6553;48.412;9.514;2023-04-25T05:03:37;1.30;;;1.20;;
12976;SDS011;6553;48.412;9.514;2023-04-25T05:06:24;1.30;;;1.20;;
12976;SDS011;6553;48.412;9.514;2023-04-25T05:09:11;1.27;;;1.20;;
12976;SDS011;6553;48.412;9.514;2023-04-25T05:11:53;1.38;;;1.27;;
12976;SDS011;6553;48.412;9.514;2023-04-25T05:14:34;1.60;;;1.35;;
12976;SDS011;6553;48.412;9.514;2023-04-25T05:17:23;1.30;;;1.20;;
12976;SDS011;6553;48.412;9.514;2023-04-25T05:20:02;1.30;;;1.20;;
12976;SDS011;6553;48.412;9.514;2023-04-25T05:22:48;1.40;;;1.30;;
12976;SDS011;6553;48.412;9.514;2023-04-25T05:25:22;1.30;;;1.20;;
12976;SDS011;6553;48.412;9.514;2023-04-25T05:28:17;1.20;;;1.10;;
12976;SDS011;6553;48.412;9.514;2023-04-25T05:30:52;1.30;;;1.20;;
12976;SDS011;6553;48.412;9.514;2023-04-25T05:33:27;1.30;;;1.20;;
12976;SDS011;6553;48.412;9.514;2023-04-25T05:35:53;2.33;;;1.30;;
12976;SDS011;6553;48.412;9.514;2023-04-25T05:38:19;1.58;;;1.48;;
12976;SDS011;6553;48.412;9.514;2023-04-25T05:41:07;1.35;;;1.23;;
12976;SDS011;6553;48.412;9.514;2023-04-25T05:43:59;1.15;;;1.05;;
12976;SDS011;6553;48.412;9.514;2023-04-25T05:46:45;1.50;;;1.40;;
12976;SDS011;6553;48.412;9.514;2023-04-25T05:49:21;1.77;;;1.30;;
12976;SDS011;6553;48.412;9.514;2023-04-25T05:51:56;1.92;;;1.50;;
12976;SDS011;6553;48.412;9.514;2023-04-25T05:54:41;1.25;;;1.15;;
12976;SDS011;6553;48.412;9.514;2023-04-25T05:57:06;1.45;;;1.27;;
12976;SDS011;6553;48.412;9.514;2023-04-25T05:59:32;1.30;;;1.20;;
12976;SDS011;6553;48.412;9.514;2023-04-25T06:01:59;1.30;;;1.20;;
12976;SDS011;6553;48.412;9.514;2023-04-25T06:04:26;1.40;;;1.30;;
12976;SDS011;6553;48.412;9.514;2023-04-25T06:06:53;2.05;;;1.30;;
12976;SDS011;6553;48.412;9.514;2023-04-25T06:09:21;1.80;;;1.10;;
12976;SDS011;6553;48.412;9.514;2023-04-25T06:11:46;2.58;;;1.30;;
12976;SDS011;6553;48.412;9.514;2023-04-25T06:14:12;1.27;;;1.17;;
12976;SDS011;6553;48.412;9.514;2023-04-25T06:16:44;1.88;;;1.48;;
12976;SDS011;6553;48.412;9.514;2023-04-25T06:19:10;2.03;;;1.38;;
12976;SDS011;6553;48.412;9.514;2023-04-25T06:21:35;1.25;;;1.15;;
12976;SDS011;6553;48.412;9.514;2023-04-25T06:24:01;1.20;;;1.20;;
12976;SDS011;6553;48.412;9.514;2023-04-25T06:26:28;1.40;;;1.30;;
12976;SDS011;6553;48.412;9.514;2023-04-25T06:28:53;1.50;;;1.10;;
12976;SDS011;6553;48.412;9.514;2023-04-25T06:31:19;1.33;;;1.23;;
12976;SDS011;6553;48.412;9.514;2023-04-25T06:33:46;1.20;;;1.10;;
12976;SDS011;6553;48.412;9.514;2023-04-25T06:36:13;1.50;;;1.30;;
12976;SDS011;6553;48.412;9.514;2023-04-25T06:38:40;1.10;;;1.00;;
12976;SDS011;6553;48.412;9.514;2023-04-25T06:41:06;1.88;;;1.10;;
12976;SDS011;6553;48.412;9.514;2023-04-25T06:43:34;1.20;;;1.20;;
12976;SDS011;6553;48.412;9.514;2023-04-25T06:46:09;1.30;;;1.20;;
12976;SDS011;6553;48.412;9.514;2023-04-25T06:48:41;1.55;;;1.38;;
12976;SDS011;6553;48.412;9.514;2023-04-25T06:51:07;2.03;;;1.33;;
12976;SDS011;6553;48.412;9.514;2023-04-25T06:53:34;1.45;;;1.30;;
12976;SDS011;6553;48.412;9.514;2023-04-25T06:56:03;1.23;;;1.13;;
12976;SDS011;6553;48.412;9.514;2023-04-25T06:58:40;1.52;;;1.42;;
12976;SDS011;6553;48.412;9.514;2023-04-25T07:01:13;1.83;;;1.40;;
12976;SDS011;6553;48.412;9.514;2023-04-25T07:03:39;1.20;;;1.20;;
12976;SDS011;6553;48.412;9.514;2023-04-25T07:06:11;1.15;;;1.05;;
12976;SDS011;6553;48.412;9.514;2023-04-25T07:08:37;1.48;;;1.38;;
12976;SDS011;6553;48.412;9.514;2023-04-25T07:11:03;1.30;;;1.20;;
12976;SDS011;6553;48.412;9.514;2023-04-25T07:13:29;1.30;;;1.20;;
12976;SDS011;6553;48.412;9.514;2023-04-25T07:15:55;1.73;;;1.50;;
12976;SDS011;6553;48.412;9.514;2023-04-25T07:18:22;1.25;;;0.98;;
12976;SDS011;6553;48.412;9.514;2023-04-25T07:20:48;2.65;;;1.20;;
12976;SDS011;6553;48.412;9.514;2023-04-25T07:23:14;1.42;;;1.30;;
12976;SDS011;6553;48.412;9.514;2023-04-25T07:25:40;1.45;;;1.05;;
12976;SDS011;6553;48.412;9.514;2023-04-25T07:28:07;1.55;;;1.20;;
12976;SDS011;6553;48.412;9.514;2023-04-25T07:30:33;2.42;;;1.33;;
12976;SDS011;6553;48.412;9.514;2023-04-25T07:33:02;1.05;;;1.00;;
12976;SDS011;6553;48.412;9.514;2023-04-25T07:35:28;1.30;;;1.20;;
12976;SDS011;6553;48.412;9.514;2023-04-25T07:37:54;1.65;;;1.30;;
12976;SDS011;6553;48.412;9.514;2023-04-25T07:40:20;1.20;;;1.10;;
12976;SDS011;6553;48.412;9.514;2023-04-25T07:42:50;1.33;;;1.23;;
12976;SDS011;6553;48.412;9.514;2023-04-25T07:45:22;1.38;;;1.10;;
12976;SDS011;6553;48.412;9.514;2023-04-25T07:47:49;1.40;;;1.08;;
12976;SDS011;6553;48.412;9.514;2023-04-25T07:50:15;1.38;;;1.25;;
12976;SDS011;6553;48.412;9.514;2023-04-25T07:52:41;1.27;;;1.17;;
12976;SDS011;6553;48.412;9.514;2023-04-25T07:55:16;1.17;;;0.93;;
12976;SDS011;6553;48.412;9.514;2023-04-25T07:57:55;1.20;;;1.10;;
12976;SDS011;6553;48.412;9.514;2023-04-25T08:00:21;1.70;;;1.40;;
12976;SDS011;6553;48.412;9.514;2023-04-25T08:02:55;1.00;;;0.90;;
12976;SDS011;6553;48.412;9.514;2023-04-25T08:05:22;1.20;;;1.10;;
12976;SDS011;6553;48.412;9.514;2023-04-25T08:07:53;1.42;;;1.30;;
12976;SDS011;6553;48.412;9.514;2023-04-25T08:10:18;1.23;;;1.13;;
12976;SDS011;6553;48.412;9.514;2023-04-25T08:12:47;1.38;;;1.20;;
12976;SDS011;6553;48.412;9.514;2023-04-25T08:15:13;1.42;;;1.20;;
12976;SDS011;6553;48.412;9.514;2023-04-25T08:17:39;1.60;;;1.33;;
12976;SDS011;6553;48.412;9.514;2023-04-25T08:20:05;1.75;;;1.40;;
12976;SDS011;6553;48.412;9.514;2023-04-25T08:22:33;1.45;;;1.20;;
12976;SDS011;6553;48.412;9.514;2023-04-25T08:25:22;1.25;;;1.15;;
12976;SDS011;6553;48.412;9.514;2023-04-25T08:27:48;1.35;;;1.23;;
12976;SDS011;6553;48.412;9.514;2023-04-25T08:30:15;1.40;;;1.30;;
12976;SDS011;6553;48.412;9.514;2023-04-25T08:32:41;1.50;;;1.40;;
12976;SDS011;6553;48.412;9.514;2023-04-25T08:35:27;1.30;;;1.20;;
12976;SDS011;6553;48.412;9.514;2023-04-25T08:37:54;1.52;;;1.30;;
12976;SDS011;6553;48.412;9.514;2023-04-25T08:40:20;1.50;;;1.15;;
12976;SDS011;6553;48.412;9.514;2023-04-25T08:42:56;1.75;;;1.45;;
12976;SDS011;6553;48.412;9.514;2023-04-25T08:45:23;1.85;;;1.23;;
12976;SDS011;6553;48.412;9.514;2023-04-25T08:47:53;1.30;;;1.20;;
12976;SDS011;6553;48.412;9.514;2023-04-25T08:50:22;1.17;;;1.02;;
12976;SDS011;6553;48.412;9.514;2023-04-25T08:52:50;1.40;;;1.30;;
12976;SDS011;6553;48.412;9.514;2023-04-25T08:55:20;1.52;;;1.42;;
12976;SDS011;6553;48.412;9.514;2023-04-25T08:57:51;1.20;;;1.10;;
12976;SDS011;6553;48.412;9.514;2023-04-25T09:00:19;1.50;;;1.40;;
12976;SDS011;6553;48.412;9.514;2023-04-25T09:02:46;1.75;;;1.50;;
12976;SDS011;6553;48.412;9.514;2023-04-25T09:05:13;1.33;;;1.23;;
12976;SDS011;6553;48.412;9.514;2023-04-25T09:07:39;1.58;;;1.48;;
12976;SDS011;6553;48.412;9.514;2023-04-25T09:10:05;1.77;;;1.67;;
12976;SDS011;6553;48.412;9.514;2023-04-25T09:12:35;1.80;;;1.70;;
12976;SDS011;6553;48.412;9.514;2023-04-25T09:17:56;2.22;;;2.03;;
12976;SDS011;6553;48.412;9.514;2023-04-25T09:20:26;2.00;;;1.90;;
12976;SDS011;6553;48.412;9.514;2023-04-25T09:23:00;2.13;;;1.92;;
12976;SDS011;6553;48.412;9.514;2023-04-25T09:25:36;2.05;;;1.85;;
12976;SDS011;6553;48.412;9.514;2023-04-25T09:28:05;1.98;;;1.77;;
12976;SDS011;6553;48.412;9.514;2023-04-25T09:30:33;2.08;;;1.80;;
12976;SDS011;6553;48.412;9.514;2023-04-25T09:33:08;2.00;;;1.90;;
12976;SDS011;6553;48.412;9.514;2023-04-25T09:35:44;2.03;;;1.92;;
12976;SDS011;6553;48.412;9.514;2023-04-25T09:38:22;2.03;;;1.83;;
12976;SDS011;6553;48.412;9.514;2023-04-25T09:41:14;2.05;;;1.70;;
12976;SDS011;6553;48.412;9.514;2023-04-25T09:43:49;1.70;;;1.60;;
12976;SDS011;6553;48.412;9.514;2023-04-25T09:46:16;2.10;;;1.70;;
12976;SDS011;6553;48.412;9.514;2023-04-25T09:48:51;1.92;;;1.70;;
12976;SDS011;6553;48.412;9.514;2023-04-25T09:51:25;1.80;;;1.70;;
12976;SDS011;6553;48.412;9.514;2023-04-25T09:53:53;1.85;;;1.70;;
12976;SDS011;6553;48.412;9.514;2023-04-25T09:56:29;1.80;;;1.70;;
12976;SDS011;6553;48.412;9.514;2023-04-25T09:59:03;1.80;;;1.70;;
12976;SDS011;6553;48.412;9.514;2023-04-25T10:01:32;1.77;;;1.67;;
12976;SDS011;6553;48.412;9.514;2023-04-25T10:04:25;1.40;;;1.30;;
12976;SDS011;6553;48.412;9.514;2023-04-25T10:07:00;1.60;;;1.50;;
12976;SDS011;6553;48.412;9.514;2023-04-25T10:09:30;2.00;;;1.60;;
12976;SDS011;6553;48.412;9.514;2023-04-25T10:12:01;1.63;;;1.23;;
12976;SDS011;6553;48.412;9.514;2023-04-25T10:14:29;1.70;;;1.60;;
12976;SDS011;6553;48.412;9.514;2023-04-25T10:16:57;1.50;;;1.40;;
12976;SDS011;6553;48.412;9.514;2023-04-25T10:19:24;1.75;;;1.52;;
12976;SDS011;6553;48.412;9.514;2023-04-25T10:25:00;1.52;;;1.42;;
12976;SDS011;6553;48.412;9.514;2023-04-25T10:27:29;1.50;;;1.40;;
12976;SDS011;6553;48.412;9.514;2023-04-25T10:32:36;1.48;;;1.38;;
12976;SDS011;6553;48.412;9.514;2023-04-25T10:35:15;1.73;;;1.60;;
12976;SDS011;6553;48.412;9.514;2023-04-25T10:41:06;1.40;;;1.30;;
12976;SDS011;6553;48.412;9.514;2023-04-25T10:48:51;1.23;;;1.13;;
12976;SDS011;6553;48.412;9.514;2023-04-25T10:51:29;1.55;;;1.40;;
12976;SDS011;6553;48.412;9.514;2023-04-25T10:54:04;1.30;;;1.30;;
12976;SDS011;6553;48.412;9.514;2023-04-25T10:56:32;1.40;;;1.30;;
12976;SDS011;6553;48.412;9.514;2023-04-25T11:01:43;1.10;;;1.10;;
12976;SDS011;6553;48.412;9.514;2023-04-25T11:04:29;1.17;;;1.10;;
12976;SDS011;6553;48.412;9.514;2023-04-25T11:09:58;1.30;;;1.15;;
12976;SDS011;6553;48.412;9.514;2023-04-25T11:12:29;1.02;;;0.93;;
12976;SDS011;6553;48.412;9.514;2023-04-25T11:15:00;0.98;;;0.98;;
12976;SDS011;6553;48.412;9.514;2023-04-25T11:17:31;1.35;;;1.25;;
12976;SDS011;6553;48.412;9.514;2023-04-25T11:19:58;0.95;;;0.95;;
12976;SDS011;6553;48.412;9.514;2023-04-25T11:22:26;1.30;;;1.20;;
12976;SDS011;6553;48.412;9.514;2023-04-25T11:24:52;1.35;;;1.25;;
12976;SDS011;6553;48.412;9.514;2023-04-25T11:27:19;1.02;;;1.02;;
12976;SDS011;6553;48.412;9.514;2023-04-25T11:29:46;0.90;;;0.90;;
12976;SDS011;6553;48.412;9.514;2023-04-25T11:32:14;0.90;;;0.90;;
12976;SDS011;6553;48.412;9.514;2023-04-25T11:34:43;1.13;;;1.10;;
12976;SDS011;6553;48.412;9.514;2023-04-25T11:37:10;0.80;;;0.80;;
12976;SDS011;6553;48.412;9.514;2023-04-25T11:39:42;1.05;;;1.05;;
12976;SDS011;6553;48.412;9.514;2023-04-25T11:42:10;1.20;;;1.10;;
12976;SDS011;6553;48.412;9.514;2023-04-25T11:44:37;0.90;;;0.90;;
12976;SDS011;6553;48.412;9.514;2023-04-25T11:47:05;0.93;;;0.93;;
12976;SDS011;6553;48.412;9.514;2023-04-25T11:49:31;1.15;;;1.08;;
12976;SDS011;6553;48.412;9.514;2023-04-25T11:51:57;0.75;;;0.75;;
12976;SDS011;6553;48.412;9.514;2023-04-25T11:54:23;0.80;;;0.80;;
12976;SDS011;6553;48.412;9.514;2023-04-25T11:56:48;0.90;;;0.90;;
12976;SDS011;6553;48.412;9.514;2023-04-25T11:59:15;0.75;;;0.75;;
12976;SDS011;6553;48.412;9.514;2023-04-25T12:01:47;1.00;;;1.00;;
12976;SDS011;6553;48.412;9.514;2023-04-25T12:04:18;0.70;;;0.70;;
12976;SDS011;6553;48.412;9.514;2023-04-25T12:06:55;0.60;;;0.60;;
12976;SDS011;6553;48.412;9.514;2023-04-25T12:09:21;0.82;;;0.82;;
12976;SDS011;6553;48.412;9.514;2023-04-25T12:11:56;0.85;;;0.85;;
12976;SDS011;6553;48.412;9.514;2023-04-25T12:14:27;0.80;;;0.68;;
12976;SDS011;6553;48.412;9.514;2023-04-25T12:16:56;0.90;;;0.90;;
12976;SDS011;6553;48.412;9.514;2023-04-25T12:19:26;0.90;;;0.90;;
12976;SDS011;6553;48.412;9.514;2023-04-25T12:22:00;0.90;;;0.90;;
12976;SDS011;6553;48.412;9.514;2023-04-25T12:24:28;0.93;;;0.90;;
12976;SDS011;6553;48.412;9.514;2023-04-25T12:29:28;0.60;;;0.60;;
12976;SDS011;6553;48.412;9.514;2023-04-25T12:31:57;0.80;;;0.80;;
12976;SDS011;6553;48.412;9.514;2023-04-25T12:34:24;0.80;;;0.80;;
12976;SDS011;6553;48.412;9.514;2023-04-25T12:36:50;0.82;;;0.82;;
12976;SDS011;6553;48.412;9.514;2023-04-25T12:39:17;0.80;;;0.80;;
12976;SDS011;6553;48.412;9.514;2023-04-25T12:41:47;0.90;;;0.90;;
12976;SDS011;6553;48.412;9.514;2023-04-25T12:44:14;0.70;;;0.70;;
12976;SDS011;6553;48.412;9.514;2023-04-25T12:46:41;0.70;;;0.70;;
12976;SDS011;6553;48.412;9.514;2023-04-25T12:49:07;1.00;;;0.90;;
12976;SDS011;6553;48.412;9.514;2023-04-25T12:51:34;1.00;;;0.90;;
12976;SDS011;6553;48.412;9.514;2023-04-25T12:54:01;0.75;;;0.73;;
12976;SDS011;6553;48.412;9.514;2023-04-25T12:56:28;1.15;;;0.70;;
12976;SDS011;6553;48.412;9.514;2023-04-25T12:58:54;0.50;;;0.50;;
12976;SDS011;6553;48.412;9.514;2023-04-25T13:01:20;0.77;;;0.77;;
12976;SDS011;6553;48.412;9.514;2023-04-25T13:03:47;0.77;;;0.77;;
12976;SDS011;6553;48.412;9.514;2023-04-25T13:06:14;0.80;;;0.80;;
12976;SDS011;6553;48.412;9.514;2023-04-25T13:08:40;0.75;;;0.75;;
12976;SDS011;6553;48.412;9.514;2023-04-25T13:11:07;0.57;;;0.57;;
12976;SDS011;6553;48.412;9.514;2023-04-25T13:13:33;1.02;;;0.93;;
12976;SDS011;6553;48.412;9.514;2023-04-25T13:16:00;0.60;;;0.60;;
12976;SDS011;6553;48.412;9.514;2023-04-25T13:18:27;0.70;;;0.70;;
12976;SDS011;6553;48.412;9.514;2023-04-25T13:20:54;0.77;;;0.77;;
12976;SDS011;6553;48.412;9.514;2023-04-25T13:23:20;0.70;;;0.70;;
12976;SDS011;6553;48.412;9.514;2023-04-25T13:25:47;0.70;;;0.70;;
12976;SDS011;6553;48.412;9.514;2023-04-25T13:28:13;0.90;;;0.90;;
12976;SDS011;6553;48.412;9.514;2023-04-25T13:30:39;0.70;;;0.70;;
12976;SDS011;6553;48.412;9.514;2023-04-25T13:33:06;0.80;;;0.80;;
12976;SDS011;6553;48.412;9.514;2023-04-25T13:35:32;0.70;;;0.70;;
12976;SDS011;6553;48.412;9.514;2023-04-25T13:38:00;0.60;;;0.60;;
12976;SDS011;6553;48.412;9.514;2023-04-25T13:40:26;0.77;;;0.70;;
12976;SDS011;6553;48.412;9.514;2023-04-25T13:42:52;0.70;;;0.70;;
12976;SDS011;6553;48.412;9.514;2023-04-25T13:45:19;0.93;;;0.80;;
12976;SDS011;6553;48.412;9.514;2023-04-25T13:47:45;0.93;;;0.80;;
12976;SDS011;6553;48.412;9.514;2023-04-25T13:50:11;0.88;;;0.80;;
12976;SDS011;6553;48.412;9.514;2023-04-25T13:52:38;0.70;;;0.70;;
12976;SDS011;6553;48.412;9.514;2023-04-25T13:55:05;0.57;;;0.57;;
12976;SDS011;6553;48.412;9.514;2023-04-25T13:57:33;0.80;;;0.80;;
12976;SDS011;6553;48.412;9.514;2023-04-25T14:00:00;0.70;;;0.70;;
12976;SDS011;6553;48.412;9.514;2023-04-25T14:02:34;0.63;;;0.60;;
12976;SDS011;6553;48.412;9.514;2023-04-25T14:05:01;0.70;;;0.70;;
12976;SDS011;6553;48.412;9.514;2023-04-25T14:07:28;1.30;;;0.80;;
12976;SDS011;6553;48.412;9.514;2023-04-25T14:09:54;0.68;;;0.68;;
12976;SDS011;6553;48.412;9.514;2023-04-25T14:12:19;0.55;;;0.55;;
12976;SDS011;6553;48.412;9.514;2023-04-25T14:14:45;0.73;;;0.70;;
12976;SDS011;6553;48.412;9.514;2023-04-25T14:17:11;1.67;;;0.60;;
12976;SDS011;6553;48.412;9.514;2023-04-25T14:19:37;0.80;;;0.80;;
12976;SDS011;6553;48.412;9.514;2023-04-25T14:22:08;0.85;;;0.85;;
12976;SDS011;6553;48.412;9.514;2023-04-25T14:24:34;0.60;;;0.60;;
12976;SDS011;6553;48.412;9.514;2023-04-25T14:27:00;0.70;;;0.70;;
12976;SDS011;6553;48.412;9.514;2023-04-25T14:29:26;0.70;;;0.70;;
12976;SDS011;6553;48.412;9.514;2023-04-25T14:31:51;0.85;;;0.70;;
12976;SDS011;6553;48.412;9.514;2023-04-25T14:34:19;0.70;;;0.70;;
12976;SDS011;6553;48.412;9.514;2023-04-25T14:36:45;1.02;;;0.90;;
12976;SDS011;6553;48.412;9.514;2023-04-25T14:39:10;0.77;;;0.77;;
12976;SDS011;6553;48.412;9.514;2023-04-25T14:41:37;0.73;;;0.63;;
12976;SDS011;6553;48.412;9.514;2023-04-25T14:44:03;0.80;;;0.70;;
12976;SDS011;6553;48.412;9.514;2023-04-25T14:46:29;0.80;;;0.80;;
12976;SDS011;6553;48.412;9.514;2023-04-25T14:48:55;0.70;;;0.70;;
12976;SDS011;6553;48.412;9.514;2023-04-25T14:51:21;0.80;;;0.80;;
12976;SDS011;6553;48.412;9.514;2023-04-25T14:53:47;0.70;;;0.70;;
12976;SDS011;6553;48.412;9.514;2023-04-25T14:56:12;0.88;;;0.70;;
12976;SDS011;6553;48.412;9.514;2023-04-25T14:58:39;0.70;;;0.70;;
12976;SDS011;6553;48.412;9.514;2023-04-25T15:01:05;0.70;;;0.70;;
12976;SDS011;6553;48.412;9.514;2023-04-25T15:03:32;1.73;;;0.98;;
12976;SDS011;6553;48.412;9.514;2023-04-25T15:05:57;0.80;;;0.80;;
12976;SDS011;6553;48.412;9.514;2023-04-25T15:08:23;0.82;;;0.80;;
12976;SDS011;6553;48.412;9.514;2023-04-25T15:10:49;0.50;;;0.50;;
12976;SDS011;6553;48.412;9.514;2023-04-25T15:13:17;0.60;;;0.60;;
12976;SDS011;6553;48.412;9.514;2023-04-25T15:15:44;0.57;;;0.57;;
12976;SDS011;6553;48.412;9.514;2023-04-25T15:18:16;1.40;;;0.70;;
12976;SDS011;6553;48.412;9.514;2023-04-25T15:20:49;0.82;;;0.70;;
12976;SDS011;6553;48.412;9.514;2023-04-25T15:23:18;0.65;;;0.65;;
12976;SDS011;6553;48.412;9.514;2023-04-25T15:25:46;0.90;;;0.80;;
12976;SDS011;6553;48.412;9.514;2023-04-25T15:28:12;0.70;;;0.65;;
12976;SDS011;6553;48.412;9.514;2023-04-25T15:30:42;0.88;;;0.88;;
12976;SDS011;6553;48.412;9.514;2023-04-25T15:33:08;0.60;;;0.50;;
12976;SDS011;6553;48.412;9.514;2023-04-25T15:35:34;1.38;;;0.70;;
12976;SDS011;6553;48.412;9.514;2023-04-25T15:38:00;0.80;;;0.80;;